Time;durP1;ratioP1;P1;durP2;ratioP2;P2;SDS_P1;SDS_P2;PMS_P1;PMS_P2;Temp;Humidity;BMP_temperature;BMP_pressure;BME280_temperature;BME280_humidity;BME280_pressure;Samples;Min_cycle;Max_cycle;Signal;HPM_P1;HPM_P2
2022/09/23 00:02:05;;;;;;;5.50;3.13;;;;;;;;;;5070936;28;20692;-29
2022/09/23 00:04:32;;;;;;;7.55;3.17;;;;;;;;;;5070629;28;21059;-30
2022/09/23 00:07:00;;;;;;;4.90;2.80;;;;;;;;;;5070536;28;20664;-29
2022/09/23 00:09:27;;;;;;;5.43;2.88;;;;;;;;;;5071593;28;20691;-28
2022/09/23 00:11:55;;;;;;;4.32;2.97;;;;;;;;;;5070893;28;20233;-30
2022/09/23 00:14:23;;;;;;;6.40;2.75;;;;;;;;;;5071449;28;20279;-28
2022/09/23 00:16:52;;;;;;;3.58;2.42;;;;;;;;;;5076557;28;20708;-29
2022/09/23 00:19:20;;;;;;;4.28;2.90;;;;;;;;;;5071551;28;20364;-26
2022/09/23 00:21:47;;;;;;;4.85;2.75;;;;;;;;;;5070145;28;20303;-27
2022/09/23 00:24:15;;;;;;;7.78;3.22;;;;;;;;;;5071272;28;20229;-29
2022/09/23 00:26:43;;;;;;;4.47;3.00;;;;;;;;;;5071449;28;20260;-30
2022/09/23 00:29:10;;;;;;;3.60;2.42;;;;;;;;;;5091518;28;20220;-30
2022/09/23 00:31:38;;;;;;;4.63;2.80;;;;;;;;;;5078390;28;20310;-29
2022/09/23 00:34:06;;;;;;;6.18;2.40;;;;;;;;;;5070693;28;20283;-29
2022/09/23 00:36:34;;;;;;;6.10;2.67;;;;;;;;;;5071225;28;20346;-28
2022/09/23 00:39:02;;;;;;;6.05;2.22;;;;;;;;;;5073713;28;20233;-29
2022/09/23 00:41:30;;;;;;;5.38;2.50;;;;;;;;;;5090787;28;20252;-29
2022/09/23 00:43:58;;;;;;;4.32;2.55;;;;;;;;;;5082322;28;20237;-29
2022/09/23 00:46:26;;;;;;;3.92;2.60;;;;;;;;;;5070138;28;20237;-28
2022/09/23 00:48:55;;;;;;;5.93;2.97;;;;;;;;;;5070329;28;20222;-29
2022/09/23 00:51:24;;;;;;;4.40;2.80;;;;;;;;;;5070106;28;20312;-29
2022/09/23 00:53:52;;;;;;;3.17;2.83;;;;;;;;;;5070302;28;20311;-28
2022/09/23 00:56:19;;;;;;;4.70;2.70;;;;;;;;;;5070081;28;20229;-28
2022/09/23 00:58:47;;;;;;;3.08;2.45;;;;;;;;;;5071318;28;20237;-29
2022/09/23 01:01:14;;;;;;;5.57;2.55;;;;;;;;;;5071376;28;20241;-28
2022/09/23 01:03:42;;;;;;;3.38;2.40;;;;;;;;;;5068943;28;20688;-30
2022/09/23 01:06:09;;;;;;;3.88;2.67;;;;;;;;;;5076241;28;20241;-28
2022/09/23 01:08:38;;;;;;;3.08;2.25;;;;;;;;;;5070868;28;20307;-29
2022/09/23 01:11:08;;;;;;;3.72;2.40;;;;;;;;;;5069574;28;20242;-29
2022/09/23 01:13:36;;;;;;;3.25;2.42;;;;;;;;;;5069523;28;20319;-28
2022/09/23 01:16:05;;;;;;;5.13;2.33;;;;;;;;;;5075787;28;20230;-29
2022/09/23 01:18:34;;;;;;;3.45;2.60;;;;;;;;;;5071956;28;20296;-29
2022/09/23 01:21:15;;;;;;;4.22;2.13;;;;;;;;;;5074055;28;20339;-29
2022/09/23 01:24:01;;;;;;;3.58;2.45;;;;;;;;;;5074428;28;20229;-31
2022/09/23 01:26:43;;;;;;;3.72;2.55;;;;;;;;;;5019137;28;20323;-30
2022/09/23 01:29:17;;;;;;;3.08;2.38;;;;;;;;;;5094354;28;20225;-28
2022/09/23 01:31:47;;;;;;;4.10;2.30;;;;;;;;;;5080328;28;20233;-30
2022/09/23 01:34:15;;;;;;;4.13;2.22;;;;;;;;;;5074213;28;20288;-29
2022/09/23 01:36:44;;;;;;;4.95;2.65;;;;;;;;;;5077814;28;20311;-30
2022/09/23 01:39:12;;;;;;;4.28;2.58;;;;;;;;;;5094121;28;20765;-29
2022/09/23 01:41:47;;;;;;;2.83;2.33;;;;;;;;;;5093577;28;20229;-26
2022/09/23 01:44:18;;;;;;;3.88;2.58;;;;;;;;;;5094278;28;20275;-29
2022/09/23 01:46:49;;;;;;;3.65;2.53;;;;;;;;;;5079834;28;20319;-28
2022/09/23 01:49:17;;;;;;;6.45;2.53;;;;;;;;;;5073085;28;20233;-28
2022/09/23 01:51:45;;;;;;;3.15;2.30;;;;;;;;;;5085660;28;20286;-29
2022/09/23 01:54:15;;;;;;;2.55;2.17;;;;;;;;;;5093958;28;20229;-30
2022/09/23 01:56:43;;;;;;;4.20;2.50;;;;;;;;;;5093783;28;20760;-26
2022/09/23 01:59:11;;;;;;;4.05;2.30;;;;;;;;;;5084104;28;20237;-28
2022/09/23 02:01:40;;;;;;;2.70;2.25;;;;;;;;;;5073360;28;20695;-29
2022/09/23 02:04:10;;;;;;;3.22;2.20;;;;;;;;;;5089815;28;20213;-30
2022/09/23 02:06:38;;;;;;;3.58;2.58;;;;;;;;;;5093383;28;20298;-27
2022/09/23 02:09:07;;;;;;;3.38;2.42;;;;;;;;;;5093233;28;20251;-27
2022/09/23 02:11:35;;;;;;;3.20;2.20;;;;;;;;;;5073269;28;20237;-27
2022/09/23 02:14:03;;;;;;;4.25;2.33;;;;;;;;;;5089902;28;20279;-30
2022/09/23 02:16:31;;;;;;;3.10;2.33;;;;;;;;;;5081395;28;20369;-29
2022/09/23 02:18:59;;;;;;;4.47;2.17;;;;;;;;;;5073318;28;20257;-28
2022/09/23 02:21:29;;;;;;;3.10;2.17;;;;;;;;;;5072233;28;20427;-27
2022/09/23 02:23:59;;;;;;;2.72;2.53;;;;;;;;;;5073202;28;20271;-28
2022/09/23 02:26:28;;;;;;;3.20;2.72;;;;;;;;;;5091135;28;20245;-28
2022/09/23 02:28:56;;;;;;;4.90;2.55;;;;;;;;;;5093538;28;20233;-28
2022/09/23 02:31:28;;;;;;;3.58;2.60;;;;;;;;;;5080131;28;20226;-29
2022/09/23 02:33:57;;;;;;;4.22;2.38;;;;;;;;;;5073117;28;20213;-29
2022/09/23 02:36:25;;;;;;;2.50;2.00;;;;;;;;;;5089871;28;20233;-29
2022/09/23 02:38:56;;;;;;;3.97;2.40;;;;;;;;;;5093109;28;20346;-28
2022/09/23 02:41:25;;;;;;;3.05;2.33;;;;;;;;;;5093457;28;20279;-26
2022/09/23 02:43:53;;;;;;;2.95;2.40;;;;;;;;;;5076843;28;20225;-28
2022/09/23 02:46:21;;;;;;;3.67;2.50;;;;;;;;;;5071731;28;21078;-28
2022/09/23 02:48:49;;;;;;;2.80;2.33;;;;;;;;;;5073729;28;20261;-28
2022/09/23 02:51:16;;;;;;;3.15;2.42;;;;;;;;;;5092715;28;20263;-29
2022/09/23 02:53:44;;;;;;;2.75;2.30;;;;;;;;;;5086338;28;21241;-29
2022/09/23 02:56:14;;;;;;;3.33;2.28;;;;;;;;;;5071150;28;20222;-27
2022/09/23 02:58:42;;;;;;;2.42;2.20;;;;;;;;;;5072042;28;21171;-26
2022/09/23 03:01:12;;;;;;;3.35;2.13;;;;;;;;;;5081735;28;20582;-27
2022/09/23 03:03:40;;;;;;;3.22;2.40;;;;;;;;;;5070621;28;20297;-29
2022/09/23 03:06:09;;;;;;;3.15;2.47;;;;;;;;;;5070753;28;20249;-27
2022/09/23 03:08:38;;;;;;;2.92;2.63;;;;;;;;;;5071952;28;20229;-30
2022/09/23 03:11:07;;;;;;;2.60;2.33;;;;;;;;;;5072302;28;20229;-28
2022/09/23 03:13:38;;;;;;;2.78;2.40;;;;;;;;;;5052703;28;20230;-30
2022/09/23 03:16:08;;;;;;;3.72;2.47;;;;;;;;;;5060108;28;20271;-29
2022/09/23 03:18:38;;;;;;;4.45;2.40;;;;;;;;;;5072536;28;20229;-27
2022/09/23 03:21:06;;;;;;;2.58;2.30;;;;;;;;;;5071340;28;20237;-28
2022/09/23 03:23:34;;;;;;;3.13;2.40;;;;;;;;;;5072817;28;20233;-28
2022/09/23 03:26:03;;;;;;;3.22;2.45;;;;;;;;;;5072151;28;20229;-29
2022/09/23 03:28:30;;;;;;;2.50;2.30;;;;;;;;;;5071652;28;20233;-27
2022/09/23 03:30:59;;;;;;;2.60;2.25;;;;;;;;;;5071957;28;20292;-29
2022/09/23 03:33:27;;;;;;;3.45;2.42;;;;;;;;;;5072325;28;20233;-30
2022/09/23 03:38:43;;;;;;;2.88;2.40;;;;;;;;;;5074925;28;20241;-30
2022/09/23 03:41:10;;;;;;;3.85;2.33;;;;;;;;;;5071648;28;20959;-28
2022/09/23 03:43:38;;;;;;;5.65;2.50;;;;;;;;;;5071846;28;20225;-27
2022/09/23 03:46:07;;;;;;;2.50;2.00;;;;;;;;;;5070583;28;20684;-29
2022/09/23 03:48:34;;;;;;;2.90;2.30;;;;;;;;;;5081036;28;20225;-27
2022/09/23 03:51:02;;;;;;;3.88;2.53;;;;;;;;;;5070845;28;20280;-30
2022/09/23 03:53:29;;;;;;;2.75;2.22;;;;;;;;;;5070933;28;20292;-27
2022/09/23 03:55:56;;;;;;;3.00;2.55;;;;;;;;;;5071367;28;20764;-28
2022/09/23 03:58:24;;;;;;;2.85;2.53;;;;;;;;;;5071790;28;20770;-31
2022/09/23 04:00:53;;;;;;;3.75;2.40;;;;;;;;;;5076243;28;20234;-30
2022/09/23 04:03:22;;;;;;;2.95;2.30;;;;;;;;;;5071752;28;20213;-28
2022/09/23 04:05:50;;;;;;;3.70;2.60;;;;;;;;;;5071308;28;20287;-29
2022/09/23 04:08:17;;;;;;;3.47;2.40;;;;;;;;;;5070915;28;20225;-27
2022/09/23 04:10:44;;;;;;;3.97;2.63;;;;;;;;;;5071268;28;21009;-26
2022/09/23 04:13:14;;;;;;;3.25;2.50;;;;;;;;;;5090981;28;20226;-28
2022/09/23 04:15:41;;;;;;;4.00;2.55;;;;;;;;;;5085759;28;20275;-29
2022/09/23 04:18:08;;;;;;;5.63;2.67;;;;;;;;;;5071071;28;20225;-30
2022/09/23 04:20:37;;;;;;;3.97;2.45;;;;;;;;;;5070353;28;21005;-30
2022/09/23 04:23:05;;;;;;;2.63;2.42;;;;;;;;;;5075399;28;20309;-30
2022/09/23 04:25:32;;;;;;;2.63;2.42;;;;;;;;;;5090717;28;20224;-30
2022/09/23 04:27:59;;;;;;;4.00;2.60;;;;;;;;;;5090975;28;20492;-29
2022/09/23 04:30:27;;;;;;;3.33;2.95;;;;;;;;;;5087937;28;20271;-29
2022/09/23 04:32:54;;;;;;;3.20;2.67;;;;;;;;;;5070253;28;20418;-30
2022/09/23 04:35:21;;;;;;;3.33;2.50;;;;;;;;;;5078055;28;20225;-27
2022/09/23 04:37:50;;;;;;;4.13;2.60;;;;;;;;;;5090950;28;20312;-29
2022/09/23 04:40:18;;;;;;;4.45;2.50;;;;;;;;;;5091110;28;20330;-29
2022/09/23 04:42:45;;;;;;;3.83;2.58;;;;;;;;;;5090765;28;20408;-30
2022/09/23 04:45:12;;;;;;;3.47;2.75;;;;;;;;;;5071959;28;20237;-30
2022/09/23 04:47:40;;;;;;;3.08;2.70;;;;;;;;;;5070410;28;20237;-29
2022/09/23 04:50:07;;;;;;;3.22;2.20;;;;;;;;;;5070387;28;20221;-30
2022/09/23 04:52:35;;;;;;;3.47;2.60;;;;;;;;;;5070375;28;20238;-30
2022/09/23 04:55:04;;;;;;;3.58;2.20;;;;;;;;;;5073076;28;20233;-28
2022/09/23 04:57:37;;;;;;;3.55;2.53;;;;;;;;;;5073711;28;21588;-29
2022/09/23 05:00:05;;;;;;;3.95;2.75;;;;;;;;;;5086626;28;20276;-27
2022/09/23 05:02:34;;;;;;;3.53;2.58;;;;;;;;;;5053684;28;21039;-25
2022/09/23 05:05:02;;;;;;;4.78;2.50;;;;;;;;;;5053461;28;20230;-29
2022/09/23 05:07:30;;;;;;;4.53;2.40;;;;;;;;;;5072890;28;20789;-27
2022/09/23 05:09:57;;;;;;;4.28;2.47;;;;;;;;;;5073682;28;20225;-28
2022/09/23 05:12:26;;;;;;;3.45;2.80;;;;;;;;;;5087559;28;20236;-27
2022/09/23 05:14:53;;;;;;;2.78;2.40;;;;;;;;;;5093500;28;20346;-28
2022/09/23 05:17:20;;;;;;;3.17;2.35;;;;;;;;;;5073950;28;20229;-27
2022/09/23 05:19:48;;;;;;;3.97;2.65;;;;;;;;;;5073569;28;20233;-28
2022/09/23 05:22:15;;;;;;;3.15;2.50;;;;;;;;;;5072951;28;20248;-27
2022/09/23 05:24:42;;;;;;;4.07;2.80;;;;;;;;;;5092129;28;20220;-26
2022/09/23 05:27:10;;;;;;;4.47;3.20;;;;;;;;;;5092521;28;20835;-28
2022/09/23 05:29:39;;;;;;;2.97;2.50;;;;;;;;;;5053063;28;20277;-27
2022/09/23 05:32:06;;;;;;;3.60;2.65;;;;;;;;;;5070004;28;20226;-28
2022/09/23 05:34:34;;;;;;;2.92;2.50;;;;;;;;;;5071911;28;20765;-28
2022/09/23 05:37:01;;;;;;;3.92;2.72;;;;;;;;;;5072903;28;20291;-28
2022/09/23 05:39:28;;;;;;;4.72;2.78;;;;;;;;;;5071825;28;20238;-29
2022/09/23 05:41:58;;;;;;;4.43;2.63;;;;;;;;;;5073699;28;20279;-27
2022/09/23 05:44:26;;;;;;;3.67;2.97;;;;;;;;;;5074161;28;20229;-28
2022/09/23 05:46:55;;;;;;;3.72;2.83;;;;;;;;;;5074066;28;20393;-26
2022/09/23 05:49:22;;;;;;;3.63;2.70;;;;;;;;;;5072190;28;20233;-29
2022/09/23 05:52:09;;;;;;;5.75;2.97;;;;;;;;;;5072842;28;20265;-29
2022/09/23 05:54:37;;;;;;;33.75;3.15;;;;;;;;;;5072978;28;20271;-30
2022/09/23 05:57:04;;;;;;;4.80;2.65;;;;;;;;;;5072752;28;20272;-28
2022/09/23 05:59:32;;;;;;;5.65;2.70;;;;;;;;;;5078824;28;20607;-30
2022/09/23 06:02:01;;;;;;;13.75;3.58;;;;;;;;;;5076030;28;20304;-31
2022/09/23 06:04:28;;;;;;;10.13;2.78;;;;;;;;;;5071834;28;20260;-29
2022/09/23 06:06:56;;;;;;;9.23;3.00;;;;;;;;;;5072487;28;20229;-30
2022/09/23 06:09:29;;;;;;;14.50;2.80;;;;;;;;;;5072515;28;20238;-30
2022/09/23 06:12:02;;;;;;;16.98;3.00;;;;;;;;;;5073666;28;20233;-30
2022/09/23 06:14:30;;;;;;;3.95;2.85;;;;;;;;;;5072131;28;20218;-32
2022/09/23 06:16:57;;;;;;;9.20;3.20;;;;;;;;;;5072459;28;20225;-32
2022/09/23 06:19:26;;;;;;;6.05;2.83;;;;;;;;;;5071924;28;20413;-30
2022/09/23 06:21:53;;;;;;;4.57;2.30;;;;;;;;;;5072416;28;20291;-31
2022/09/23 06:24:20;;;;;;;6.65;2.70;;;;;;;;;;5072019;28;20272;-29
2022/09/23 06:26:54;;;;;;;5.57;2.83;;;;;;;;;;5072179;28;20995;-30
2022/09/23 06:29:22;;;;;;;8.98;2.80;;;;;;;;;;5076914;28;20237;-20
2022/09/23 06:31:49;;;;;;;8.63;3.15;;;;;;;;;;5078125;28;20222;-21
2022/09/23 06:34:17;;;;;;;10.65;3.47;;;;;;;;;;5070683;28;20429;-22
2022/09/23 06:36:46;;;;;;;12.07;3.70;;;;;;;;;;5072465;28;20214;-21
2022/09/23 06:39:14;;;;;;;18.77;3.42;;;;;;;;;;5071509;28;20229;-20
2022/09/23 06:41:41;;;;;;;10.85;3.17;;;;;;;;;;5075884;28;20221;-22
2022/09/23 06:44:08;;;;;;;7.55;3.05;;;;;;;;;;5092448;28;21238;-23
2022/09/23 06:46:36;;;;;;;14.50;3.10;;;;;;;;;;5072936;28;20320;-22
2022/09/23 06:49:04;;;;;;;20.23;4.15;;;;;;;;;;5069302;28;20234;-21
2022/09/23 06:51:31;;;;;;;30.90;4.28;;;;;;;;;;5066705;28;21013;-20
2022/09/23 06:54:00;;;;;;;20.52;3.53;;;;;;;;;;5062377;28;20234;-20
2022/09/23 06:56:27;;;;;;;28.42;3.70;;;;;;;;;;5062125;28;20276;-20
2022/09/23 06:58:54;;;;;;;20.33;4.40;;;;;;;;;;5061244;28;20225;-20
2022/09/23 07:01:22;;;;;;;19.48;3.72;;;;;;;;;;5064471;28;20295;-20
2022/09/23 07:03:49;;;;;;;20.92;3.85;;;;;;;;;;5060286;28;20284;-20
2022/09/23 07:06:16;;;;;;;24.20;4.20;;;;;;;;;;5061300;28;20237;-20
2022/09/23 07:08:45;;;;;;;25.23;4.72;;;;;;;;;;5068789;28;20295;-19
2022/09/23 07:11:14;;;;;;;25.08;4.43;;;;;;;;;;5071543;28;20225;-19
2022/09/23 07:13:41;;;;;;;17.75;4.07;;;;;;;;;;5087308;28;20237;-19
2022/09/23 07:16:09;;;;;;;31.75;4.45;;;;;;;;;;5082336;28;20267;-20
2022/09/23 07:18:37;;;;;;;26.40;4.65;;;;;;;;;;5071467;28;21084;-19
2022/09/23 07:21:05;;;;;;;18.70;5.05;;;;;;;;;;5071947;28;20229;-19
2022/09/23 07:23:32;;;;;;;33.80;4.55;;;;;;;;;;5071973;28;20230;-20
2022/09/23 07:26:00;;;;;;;18.08;4.97;;;;;;;;;;5072623;28;20291;-19
2022/09/23 07:28:29;;;;;;;20.02;4.97;;;;;;;;;;5070142;28;20233;-20
2022/09/23 07:30:56;;;;;;;16.38;5.15;;;;;;;;;;5071537;28;20245;-20
2022/09/23 07:33:31;;;;;;;16.10;4.73;;;;;;;;;;5070569;28;20425;-19
2022/09/23 07:36:03;;;;;;;11.60;4.45;;;;;;;;;;5072484;28;20229;-19
2022/09/23 07:38:30;;;;;;;18.73;4.57;;;;;;;;;;5072022;28;20292;-19
2022/09/23 07:41:02;;;;;;;12.43;4.30;;;;;;;;;;5071528;28;20283;-20
2022/09/23 07:43:31;;;;;;;13.85;4.72;;;;;;;;;;5071719;28;20225;-20
2022/09/23 07:46:01;;;;;;;13.63;5.90;;;;;;;;;;5062066;28;20244;-19
2022/09/23 07:48:28;;;;;;;22.95;5.57;;;;;;;;;;5069276;28;20225;-20
2022/09/23 07:51:00;;;;;;;21.17;5.65;;;;;;;;;;5083160;28;20969;-19
2022/09/23 07:53:29;;;;;;;21.52;6.03;;;;;;;;;;5070049;28;20225;-19
2022/09/23 07:55:56;;;;;;;12.45;5.22;;;;;;;;;;5070741;28;21039;-19
2022/09/23 07:58:24;;;;;;;26.35;5.82;;;;;;;;;;5070205;28;20217;-21
2022/09/23 08:00:53;;;;;;;27.20;5.97;;;;;;;;;;5071067;28;20256;-19
2022/09/23 08:03:20;;;;;;;20.35;5.75;;;;;;;;;;5070252;28;21046;-19
2022/09/23 08:05:48;;;;;;;17.08;6.43;;;;;;;;;;5071022;28;20293;-19
2022/09/23 08:08:16;;;;;;;17.33;6.72;;;;;;;;;;5071247;28;20283;-19
2022/09/23 08:10:44;;;;;;;20.00;6.38;;;;;;;;;;5071472;28;20956;-19
2022/09/23 08:13:12;;;;;;;51.28;8.93;;;;;;;;;;5075342;28;20288;-19
2022/09/23 08:15:42;;;;;;;31.88;6.88;;;;;;;;;;5084098;28;20283;-19
2022/09/23 08:18:11;;;;;;;38.88;6.93;;;;;;;;;;5071238;28;20348;-19
2022/09/23 08:20:44;;;;;;;39.00;7.47;;;;;;;;;;5070927;28;20287;-19
2022/09/23 08:23:14;;;;;;;35.03;7.65;;;;;;;;;;5070482;28;20964;-19
2022/09/23 08:25:41;;;;;;;37.15;7.72;;;;;;;;;;5051469;28;20277;-20
2022/09/23 08:28:15;;;;;;;32.72;7.00;;;;;;;;;;5052281;28;20272;-20
2022/09/23 08:30:42;;;;;;;31.92;6.93;;;;;;;;;;5059875;28;20302;-19
2022/09/23 08:33:11;;;;;;;15.95;6.28;;;;;;;;;;5075057;28;20247;-20
2022/09/23 08:35:39;;;;;;;19.67;5.78;;;;;;;;;;5076111;28;20248;-19
2022/09/23 08:38:06;;;;;;;20.13;6.25;;;;;;;;;;5095431;28;20213;-20
2022/09/23 08:40:34;;;;;;;17.35;6.13;;;;;;;;;;5095134;28;20228;-19
2022/09/23 08:43:04;;;;;;;17.27;5.43;;;;;;;;;;5093580;28;20228;-19
2022/09/23 08:45:32;;;;;;;13.23;5.35;;;;;;;;;;5089558;28;20241;-19
2022/09/23 08:48:00;;;;;;;8.45;5.03;;;;;;;;;;5078894;28;20282;-21
2022/09/23 08:50:30;;;;;;;19.00;5.55;;;;;;;;;;5094025;28;20312;-19
2022/09/23 08:52:58;;;;;;;10.13;4.80;;;;;;;;;;5094107;28;20234;-19
2022/09/23 08:55:28;;;;;;;20.27;5.78;;;;;;;;;;5094369;28;20229;-19
2022/09/23 08:58:01;;;;;;;15.10;5.72;;;;;;;;;;5078917;28;21007;-19
2022/09/23 09:00:49;;;;;;;16.40;5.55;;;;;;;;;;5073828;28;20651;-20
2022/09/23 09:03:18;;;;;;;27.15;5.45;;;;;;;;;;5073893;28;20712;-20
2022/09/23 09:05:47;;;;;;;27.70;5.85;;;;;;;;;;5073501;28;20233;-19
2022/09/23 09:08:23;;;;;;;14.95;5.18;;;;;;;;;;5072302;28;20702;-19
2022/09/23 09:10:50;;;;;;;14.68;4.82;;;;;;;;;;5073292;28;20292;-20
2022/09/23 09:13:21;;;;;;;11.82;4.70;;;;;;;;;;5087927;28;20236;-20
2022/09/23 09:15:49;;;;;;;22.30;5.10;;;;;;;;;;5087466;28;20898;-19
2022/09/23 09:18:18;;;;;;;12.27;5.57;;;;;;;;;;5073663;28;20681;-20
2022/09/23 09:20:48;;;;;;;12.85;4.40;;;;;;;;;;5093341;28;20283;-20
2022/09/23 09:23:18;;;;;;;14.05;4.63;;;;;;;;;;5093579;28;20264;-20
2022/09/23 09:25:46;;;;;;;19.35;5.13;;;;;;;;;;5079480;28;20229;-20
2022/09/23 09:28:15;;;;;;;16.80;5.20;;;;;;;;;;5073295;28;21027;-20
2022/09/23 09:30:43;;;;;;;9.30;4.65;;;;;;;;;;5072349;28;20265;-19
2022/09/23 09:33:16;;;;;;;27.27;5.95;;;;;;;;;;5072472;28;20707;-20
2022/09/23 09:35:52;;;;;;;16.50;5.10;;;;;;;;;;5073217;28;20230;-19
2022/09/23 09:38:20;;;;;;;15.68;5.15;;;;;;;;;;5091289;28;20282;-19
2022/09/23 09:40:48;;;;;;;22.23;5.25;;;;;;;;;;5087445;28;20303;-20
2022/09/23 09:43:22;;;;;;;19.05;5.18;;;;;;;;;;5074013;28;21148;-20
2022/09/23 09:45:55;;;;;;;20.17;4.80;;;;;;;;;;5073711;28;20672;-20
2022/09/23 09:48:26;;;;;;;17.35;5.25;;;;;;;;;;5074223;28;20315;-20
2022/09/23 09:50:55;;;;;;;11.95;4.40;;;;;;;;;;5089099;28;20233;-20
2022/09/23 09:53:23;;;;;;;11.30;4.70;;;;;;;;;;5073242;28;20233;-19
2022/09/23 09:56:00;;;;;;;10.75;4.82;;;;;;;;;;5073003;28;20991;-20
2022/09/23 09:58:40;;;;;;;13.38;4.50;;;;;;;;;;5072782;28;20221;-20
2022/09/23 10:01:07;;;;;;;10.13;4.05;;;;;;;;;;5074933;28;20933;-19
2022/09/23 10:03:38;;;;;;;12.35;4.78;;;;;;;;;;5073243;28;20233;-19
2022/09/23 10:06:20;;;;;;;16.98;5.20;;;;;;;;;;5072615;28;20275;-19
2022/09/23 10:08:48;;;;;;;21.25;4.95;;;;;;;;;;5072639;28;20233;-20
2022/09/23 10:11:16;;;;;;;18.83;5.00;;;;;;;;;;5072429;28;20237;-19
2022/09/23 10:14:00;;;;;;;15.88;4.55;;;;;;;;;;5084535;28;20244;-19
2022/09/23 10:16:27;;;;;;;17.45;5.13;;;;;;;;;;5072720;28;20307;-20
2022/09/23 10:18:55;;;;;;;15.18;4.55;;;;;;;;;;5073374;28;20249;-20
2022/09/23 10:21:25;;;;;;;18.38;4.72;;;;;;;;;;5072802;28;20234;-19
2022/09/23 10:23:56;;;;;;;11.50;4.82;;;;;;;;;;5077530;28;20991;-20
2022/09/23 10:26:25;;;;;;;12.85;5.05;;;;;;;;;;5072534;28;20283;-20
2022/09/23 10:28:54;;;;;;;11.90;4.50;;;;;;;;;;5072179;28;20279;-21
2022/09/23 10:31:24;;;;;;;14.18;5.03;;;;;;;;;;5072366;28;20233;-21
2022/09/23 10:33:53;;;;;;;10.43;4.20;;;;;;;;;;5072325;28;21000;-20
2022/09/23 10:36:20;;;;;;;8.73;4.70;;;;;;;;;;5066412;28;20300;-20
2022/09/23 10:38:50;;;;;;;17.95;4.85;;;;;;;;;;5071726;28;20788;-20
2022/09/23 10:47:02;;;;;;;16.25;4.10;;;;;;;;;;5070998;28;20257;-20
2022/09/23 10:49:48;;;;;;;12.40;4.20;;;;;;;;;;5072044;28;21061;-19
2022/09/23 10:52:19;;;;;;;11.18;4.15;;;;;;;;;;5071093;28;20292;-19
2022/09/23 10:54:51;;;;;;;7.68;4.00;;;;;;;;;;5072171;28;20765;-19
2022/09/23 11:00:15;;;;;;;12.20;3.90;;;;;;;;;;5076071;28;20703;-19
2022/09/23 11:02:51;;;;;;;9.25;4.50;;;;;;;;;;5071630;28;20233;-19
2022/09/23 11:05:34;;;;;;;11.85;4.10;;;;;;;;;;5071494;28;20224;-19
2022/09/23 11:08:05;;;;;;;9.15;4.10;;;;;;;;;;5069924;28;20222;-20
2022/09/23 11:10:50;;;;;;;6.88;3.25;;;;;;;;;;5070979;28;20354;-20
2022/09/23 11:13:22;;;;;;;12.93;4.03;;;;;;;;;;5083876;28;20287;-20
2022/09/23 11:15:50;;;;;;;15.20;4.38;;;;;;;;;;5084785;28;20256;-19
2022/09/23 11:18:22;;;;;;;11.93;3.90;;;;;;;;;;5071950;28;20230;-19
2022/09/23 11:20:53;;;;;;;13.07;4.50;;;;;;;;;;5070680;28;20268;-20
2022/09/23 11:23:32;;;;;;;12.05;3.70;;;;;;;;;;5071148;28;20307;-20
2022/09/23 11:26:03;;;;;;;13.70;4.25;;;;;;;;;;5051240;28;20272;-19
2022/09/23 11:28:34;;;;;;;11.57;4.43;;;;;;;;;;5051309;28;20222;-19
2022/09/23 11:31:05;;;;;;;13.98;4.40;;;;;;;;;;5058230;28;20326;-19
2022/09/23 11:33:36;;;;;;;20.92;4.97;;;;;;;;;;5071400;28;20256;-20
2022/09/23 11:36:05;;;;;;;21.73;4.30;;;;;;;;;;5069173;28;20218;-20
2022/09/23 11:38:34;;;;;;;17.55;4.50;;;;;;;;;;5068577;28;20240;-19
2022/09/23 11:41:04;;;;;;;17.20;4.10;;;;;;;;;;5082521;28;20241;-19
2022/09/23 11:43:34;;;;;;;13.93;4.45;;;;;;;;;;5081498;28;20268;-19
2022/09/23 11:46:02;;;;;;;15.93;5.13;;;;;;;;;;5067146;28;20753;-20
2022/09/23 11:48:32;;;;;;;16.05;5.57;;;;;;;;;;5075622;28;20228;-19
2022/09/23 11:51:00;;;;;;;17.08;5.10;;;;;;;;;;5070713;28;21010;-19
2022/09/23 11:53:29;;;;;;;19.77;5.00;;;;;;;;;;5070564;28;20237;-20
2022/09/23 11:56:06;;;;;;;26.13;5.53;;;;;;;;;;5070526;28;20225;-20
2022/09/23 11:58:35;;;;;;;22.33;5.75;;;;;;;;;;5070838;28;20291;-19
2022/09/23 12:01:05;;;;;;;20.25;6.68;;;;;;;;;;5075717;28;20394;-20
2022/09/23 12:03:35;;;;;;;25.45;5.60;;;;;;;;;;5071135;28;20701;-19
2022/09/23 12:06:12;;;;;;;29.42;6.15;;;;;;;;;;5069702;28;20232;-19
2022/09/23 12:08:39;;;;;;;29.92;6.97;;;;;;;;;;5070742;28;20221;-19
2022/09/23 12:11:08;;;;;;;21.65;6.47;;;;;;;;;;5070714;28;20233;-20
2022/09/23 12:13:41;;;;;;;26.27;6.53;;;;;;;;;;5086178;28;20271;-20
2022/09/23 12:16:23;;;;;;;39.90;6.93;;;;;;;;;;5073329;28;20342;-21
2022/09/23 12:18:54;;;;;;;37.88;6.90;;;;;;;;;;5067271;28;20283;-19
2022/09/23 12:21:27;;;;;;;43.10;6.65;;;;;;;;;;5070450;28;20264;-19
2022/09/23 12:24:20;;;;;;;48.65;6.97;;;;;;;;;;5071128;28;20399;-20
2022/09/23 12:26:49;;;;;;;40.80;6.13;;;;;;;;;;5069964;28;20233;-21
2022/09/23 12:29:17;;;;;;;27.83;6.07;;;;;;;;;;5070462;28;20228;-19
2022/09/23 12:31:45;;;;;;;32.08;6.05;;;;;;;;;;5069609;28;20336;-19
2022/09/23 12:34:19;;;;;;;33.85;6.18;;;;;;;;;;5070422;28;20662;-19
2022/09/23 12:36:47;;;;;;;39.20;6.07;;;;;;;;;;5072336;28;20664;-19
2022/09/23 12:39:14;;;;;;;27.05;6.35;;;;;;;;;;5071290;28;20275;-20
2022/09/23 12:41:42;;;;;;;28.33;6.22;;;;;;;;;;5071157;28;20350;-19
2022/09/23 12:44:13;;;;;;;41.20;6.63;;;;;;;;;;5070468;28;20284;-20
2022/09/23 12:46:42;;;;;;;26.48;6.00;;;;;;;;;;5070363;28;21003;-20
2022/09/23 12:49:22;;;;;;;36.00;6.50;;;;;;;;;;5073864;28;20252;-20
2022/09/23 12:52:04;;;;;;;26.30;5.68;;;;;;;;;;5070166;28;21193;-20
2022/09/23 12:54:31;;;;;;;19.23;5.70;;;;;;;;;;5069382;28;20230;-19
2022/09/23 12:56:59;;;;;;;31.52;6.10;;;;;;;;;;5069424;28;20276;-19
2022/09/23 12:59:27;;;;;;;21.25;5.80;;;;;;;;;;5069519;28;20283;-20
2022/09/23 13:01:56;;;;;;;29.98;6.43;;;;;;;;;;5070506;28;20226;-20
2022/09/23 13:07:13;;;;;;;32.08;6.35;;;;;;;;;;5069742;28;20229;-21
2022/09/23 13:09:41;;;;;;;17.80;5.45;;;;;;;;;;5069537;28;20237;-20
2022/09/23 13:12:18;;;;;;;28.08;6.78;;;;;;;;;;5069622;28;20241;-19
2022/09/23 13:14:46;;;;;;;17.90;5.63;;;;;;;;;;5051505;28;20284;-21
2022/09/23 13:17:23;;;;;;;17.05;5.40;;;;;;;;;;5071099;28;20287;-21
2022/09/23 13:19:57;;;;;;;22.23;5.32;;;;;;;;;;5073533;28;20221;-21
2022/09/23 13:22:40;;;;;;;19.63;6.10;;;;;;;;;;5071596;28;20311;-19
2022/09/23 13:25:10;;;;;;;19.00;6.38;;;;;;;;;;5079691;28;20308;-19
2022/09/23 13:27:38;;;;;;;29.02;5.97;;;;;;;;;;5094222;28;20301;-19
2022/09/23 13:30:06;;;;;;;16.63;6.70;;;;;;;;;;5094188;28;20228;-19
2022/09/23 13:32:35;;;;;;;25.98;6.68;;;;;;;;;;5072544;28;20698;-19
2022/09/23 13:35:04;;;;;;;19.33;6.45;;;;;;;;;;5073223;28;20221;-20
2022/09/23 13:37:38;;;;;;;24.35;6.43;;;;;;;;;;5084518;28;20217;-19
2022/09/23 13:40:10;;;;;;;18.30;6.20;;;;;;;;;;5092952;28;20245;-19
2022/09/23 13:42:38;;;;;;;25.23;6.15;;;;;;;;;;5088492;28;20234;-19
2022/09/23 13:45:06;;;;;;;17.38;6.15;;;;;;;;;;5073062;28;20299;-19
2022/09/23 13:47:35;;;;;;;14.50;5.57;;;;;;;;;;5071638;28;20252;-19
2022/09/23 13:50:02;;;;;;;18.88;5.70;;;;;;;;;;5073053;28;20233;-20
2022/09/23 13:52:30;;;;;;;37.42;6.30;;;;;;;;;;5072863;28;20233;-19
2022/09/23 13:54:58;;;;;;;10.55;5.20;;;;;;;;;;5072932;28;20233;-19
2022/09/23 13:57:26;;;;;;;15.23;5.43;;;;;;;;;;5072896;28;20957;-19
2022/09/23 13:59:53;;;;;;;12.25;5.60;;;;;;;;;;5072801;28;20327;-19
2022/09/23 14:02:24;;;;;;;11.35;5.47;;;;;;;;;;5073079;28;21017;-19
2022/09/23 14:04:54;;;;;;;18.45;6.40;;;;;;;;;;5078206;28;20256;-19
2022/09/23 14:07:21;;;;;;;14.85;5.63;;;;;;;;;;5093963;28;20641;-19
2022/09/23 14:09:49;;;;;;;16.70;5.35;;;;;;;;;;5093815;28;20637;-19
2022/09/23 14:12:20;;;;;;;10.88;5.35;;;;;;;;;;5092322;28;20237;-19
2022/09/23 14:14:48;;;;;;;22.15;5.95;;;;;;;;;;5092894;28;20233;-18
2022/09/23 14:17:17;;;;;;;21.70;5.20;;;;;;;;;;5073671;28;20229;-19
2022/09/23 14:19:44;;;;;;;15.18;4.65;;;;;;;;;;5072415;28;20225;-19
2022/09/23 14:22:22;;;;;;;13.90;5.50;;;;;;;;;;5071965;28;20241;-19
2022/09/23 14:24:49;;;;;;;16.63;5.22;;;;;;;;;;5078782;28;20213;-18
2022/09/23 14:27:17;;;;;;;11.70;4.47;;;;;;;;;;5081025;28;20315;-19
2022/09/23 14:29:45;;;;;;;17.85;5.22;;;;;;;;;;5072322;28;20225;-20
2022/09/23 14:32:13;;;;;;;19.45;5.57;;;;;;;;;;5077560;28;20275;-19
2022/09/23 14:34:41;;;;;;;13.55;4.85;;;;;;;;;;5092832;28;20229;-19
2022/09/23 14:39:56;;;;;;;14.63;4.45;;;;;;;;;;5052579;28;21005;-19
2022/09/23 14:42:24;;;;;;;11.10;4.63;;;;;;;;;;5052615;28;20233;-19
2022/09/23 14:44:52;;;;;;;12.85;4.55;;;;;;;;;;5052755;28;20226;-19
2022/09/23 14:47:19;;;;;;;15.80;4.50;;;;;;;;;;5071310;28;20243;-18
2022/09/23 14:50:35;;;;;;;8.35;4.50;;;;;;;;;;5071004;28;20234;-18
2022/09/23 14:52:35;;;;;;;8.43;3.70;;;;;;;;;;5071973;28;20763;-19
2022/09/23 14:55:04;;;;;;;12.80;4.57;;;;;;;;;;5071553;28;20322;-19
2022/09/23 14:57:32;;;;;;;8.43;4.15;;;;;;;;;;5071868;28;20229;-18
2022/09/23 15:00:00;;;;;;;8.80;4.45;;;;;;;;;;5071601;28;20230;-19
2022/09/23 15:02:30;;;;;;;7.68;4.15;;;;;;;;;;5071348;28;20233;-19
2022/09/23 15:05:07;;;;;;;8.98;4.55;;;;;;;;;;5071704;28;20221;-19
2022/09/23 15:07:35;;;;;;;10.70;4.40;;;;;;;;;;5072374;28;21738;-19